Time;durP1;ratioP1;P1;durP2;ratioP2;P2;SDS_P1;SDS_P2;PMS_P1;PMS_P2;Temp;Humidity;BMP_temperature;BMP_pressure;BME280_temperature;BME280_humidity;BME280_pressure;Samples;Min_cycle;Max_cycle;Signal;HPM_P1;HPM_P2
2022/01/25 00:15:02;;;;;;;24.48;16.50;;;;;11.50;103285.00;;;;5086009;28;20271;-79
2022/01/25 00:24:51;;;;;;;21.77;14.13;;;;;11.50;103281.00;;;;5102834;28;20207;-79
2022/01/25 00:27:39;;;;;;;25.30;16.00;;;;;11.50;103280.00;;;;5094760;28;20198;-80
2022/01/25 00:30:24;;;;;;;23.67;16.08;;;;;11.50;103287.00;;;;5106725;28;20226;-81
2022/01/25 00:32:52;;;;;;;27.58;16.27;;;;;11.40;103284.00;;;;5087917;28;20680;-80
2022/01/25 00:35:20;;;;;;;25.13;16.05;;;;;11.50;103282.00;;;;5089216;28;20194;-80
2022/01/25 00:37:47;;;;;;;25.83;16.23;;;;;11.50;103293.00;;;;5089285;28;20194;-80
2022/01/25 00:40:14;;;;;;;24.40;15.75;;;;;11.40;103299.00;;;;5074635;28;20202;-80
2022/01/25 00:42:41;;;;;;;26.60;16.90;;;;;11.40;103285.00;;;;5098999;28;20293;-80
2022/01/25 00:45:11;;;;;;;24.45;16.02;;;;;11.40;103275.00;;;;5092781;28;20193;-81
2022/01/25 00:47:40;;;;;;;28.70;16.35;;;;;11.40;103288.00;;;;5099252;28;20718;-81
2022/01/25 00:50:14;;;;;;;26.05;16.20;;;;;11.40;103287.00;;;;5109747;28;20220;-81
2022/01/25 00:55:27;;;;;;;25.27;16.90;;;;;11.40;103272.00;;;;5085465;28;20490;-81
2022/01/25 00:57:55;;;;;;;24.58;16.20;;;;;11.40;103281.00;;;;5086826;28;20190;-81
2022/01/25 01:00:22;;;;;;;26.33;16.75;;;;;11.40;103273.00;;;;5089282;28;20208;-80
2022/01/25 01:02:51;;;;;;;24.42;16.13;;;;;11.40;103273.00;;;;5088385;28;20193;-80
2022/01/25 01:05:20;;;;;;;25.73;15.77;;;;;11.40;103270.00;;;;5106183;28;20209;-81
2022/01/25 01:07:47;;;;;;;23.27;15.93;;;;;11.40;103266.00;;;;5089632;28;20569;-81
2022/01/25 01:10:19;;;;;;;23.23;15.48;;;;;11.40;103267.00;;;;5088016;28;20220;-81
2022/01/25 01:13:20;;;;;;;24.98;16.17;;;;;11.40;103269.00;;;;5084187;28;20202;-81
2022/01/25 01:15:54;;;;;;;25.38;16.33;;;;;11.40;103273.00;;;;5088600;28;20202;-80
2022/01/25 01:29:45;;;;;;;25.20;15.45;;;;;11.30;103276.00;;;;5084992;28;20734;-81
2022/01/25 01:32:33;;;;;;;23.67;15.48;;;;;11.30;103272.00;;;;5083716;28;20217;-81
2022/01/25 01:35:28;;;;;;;24.13;16.48;;;;;11.30;103267.00;;;;5087590;28;20198;-81
2022/01/25 01:38:16;;;;;;;24.67;15.82;;;;;11.30;103264.00;;;;5087666;28;20203;-81
2022/01/25 01:43:30;;;;;;;25.52;16.13;;;;;11.30;103267.00;;;;5085056;28;20229;-81
2022/01/25 01:46:16;;;;;;;28.00;17.42;;;;;11.30;103272.00;;;;5097722;28;20251;-81
2022/01/25 01:48:52;;;;;;;23.90;15.40;;;;;11.30;103275.00;;;;5087683;28;20568;-81
2022/01/25 01:51:26;;;;;;;27.63;16.80;;;;;11.30;103272.00;;;;5087355;28;20241;-81
2022/01/25 01:53:55;;;;;;;23.92;15.13;;;;;11.30;103272.00;;;;5066847;28;20202;-80
2022/01/25 01:56:23;;;;;;;26.58;16.17;;;;;11.30;103265.00;;;;5078752;28;20203;-80
2022/01/25 01:58:52;;;;;;;25.75;16.55;;;;;11.30;103257.00;;;;5089076;28;20201;-81
2022/01/25 02:01:21;;;;;;;25.95;16.55;;;;;11.30;103260.00;;;;5083106;28;20199;-80
2022/01/25 02:03:48;;;;;;;25.60;16.25;;;;;11.30;103259.00;;;;5086291;28;21073;-81
2022/01/25 02:06:15;;;;;;;24.75;16.20;;;;;11.30;103254.00;;;;5096679;28;20224;-81
2022/01/25 02:08:43;;;;;;;24.40;16.65;;;;;11.30;103257.00;;;;5088109;28;20244;-80
2022/01/25 02:11:12;;;;;;;28.10;16.58;;;;;11.30;103252.00;;;;5091421;28;20226;-81
2022/01/25 02:13:41;;;;;;;24.65;15.88;;;;;11.30;103253.00;;;;5091541;28;20679;-81
2022/01/25 02:16:15;;;;;;;24.83;15.90;;;;;11.30;103242.00;;;;5091843;28;20198;-80
2022/01/25 02:24:13;;;;;;;25.98;16.15;;;;;11.30;103249.00;;;;5091545;28;20200;-81
2022/01/25 02:26:41;;;;;;;26.58;16.70;;;;;11.30;103243.00;;;;5097261;28;20190;-81
2022/01/25 02:29:08;;;;;;;28.48;17.17;;;;;11.30;103239.00;;;;5089196;28;20202;-81
2022/01/25 02:31:35;;;;;;;28.13;16.63;;;;;11.20;103244.00;;;;5092512;28;20214;-81
2022/01/25 02:34:02;;;;;;;26.48;16.88;;;;;11.20;103235.00;;;;5090006;28;20194;-80
2022/01/25 02:36:33;;;;;;;27.30;15.68;;;;;11.20;103237.00;;;;5083179;28;20683;-80
2022/01/25 02:39:00;;;;;;;26.25;15.10;;;;;11.20;103249.00;;;;5089925;28;20206;-81
2022/01/25 02:41:27;;;;;;;25.55;15.73;;;;;11.20;103240.00;;;;5097078;28;20198;-81
2022/01/25 02:43:56;;;;;;;26.67;15.55;;;;;11.20;103247.00;;;;5090482;28;20190;-81
2022/01/25 02:49:08;;;;;;;25.58;16.23;;;;;11.20;103247.00;;;;5089420;28;20335;-81
2022/01/25 02:51:40;;;;;;;27.30;16.80;;;;;11.20;103249.00;;;;5093943;28;20764;-81
2022/01/25 02:54:09;;;;;;;29.15;17.33;;;;;11.20;103255.00;;;;5081440;28;20223;-81
2022/01/25 02:56:37;;;;;;;27.85;18.33;;;;;11.20;103264.00;;;;5086499;28;20198;-81
2022/01/25 02:59:06;;;;;;;28.67;16.23;;;;;11.20;103252.00;;;;5090861;28;20197;-82
2022/01/25 03:01:34;;;;;;;27.08;16.58;;;;;11.10;103254.00;;;;5091620;28;20198;-82
2022/01/25 03:04:02;;;;;;;25.95;15.30;;;;;11.10;103253.00;;;;5090160;28;20194;-81
2022/01/25 03:06:30;;;;;;;27.58;17.15;;;;;11.20;103240.00;;;;5091417;28;20194;-81
2022/01/25 03:08:58;;;;;;;26.60;16.67;;;;;11.10;103241.00;;;;5091312;28;20190;-81
2022/01/25 03:11:26;;;;;;;24.88;16.48;;;;;11.10;103238.00;;;;5090253;28;20233;-82
2022/01/25 03:13:57;;;;;;;26.48;17.35;;;;;11.10;103238.00;;;;5093539;28;20204;-81
2022/01/25 03:16:31;;;;;;;26.20;16.40;;;;;11.10;103247.00;;;;5094380;28;20198;-81
2022/01/25 03:19:01;;;;;;;26.38;15.98;;;;;11.10;103237.00;;;;5073895;28;20406;-81
2022/01/25 03:21:38;;;;;;;26.60;16.02;;;;;11.20;103234.00;;;;5090239;28;20268;-81
2022/01/25 03:24:08;;;;;;;26.75;16.60;;;;;11.10;103233.00;;;;5097488;28;20189;-81
2022/01/25 03:26:36;;;;;;;24.27;15.95;;;;;11.20;103234.00;;;;5089820;28;21017;-80
2022/01/25 03:29:05;;;;;;;26.08;15.93;;;;;11.20;103229.00;;;;5085828;28;20194;-80
2022/01/25 03:31:32;;;;;;;27.38;16.92;;;;;11.20;103223.00;;;;5090185;28;20275;-80
2022/01/25 03:34:00;;;;;;;27.33;16.73;;;;;11.20;103229.00;;;;5084255;28;20190;-79
2022/01/25 03:36:28;;;;;;;27.05;16.25;;;;;11.20;103232.00;;;;5090637;28;20205;-80
2022/01/25 03:38:55;;;;;;;26.77;16.92;;;;;11.20;103234.00;;;;5089327;28;20202;-79
2022/01/25 03:41:25;;;;;;;25.42;15.52;;;;;11.20;103233.00;;;;5083102;28;20206;-80
2022/01/25 03:43:55;;;;;;;28.75;16.85;;;;;11.20;103227.00;;;;5089532;28;20191;-80
2022/01/25 03:46:31;;;;;;;26.63;15.80;;;;;11.20;103229.00;;;;5085739;28;20627;-80
2022/01/25 03:51:44;;;;;;;26.63;15.48;;;;;11.20;103222.00;;;;5100559;28;20220;-80
2022/01/25 03:54:12;;;;;;;26.95;16.42;;;;;11.20;103224.00;;;;5089253;28;20230;-80
2022/01/25 03:56:41;;;;;;;28.15;17.33;;;;;11.20;103216.00;;;;5093198;28;20186;-80
2022/01/25 03:59:08;;;;;;;26.77;15.63;;;;;11.20;103228.00;;;;5088800;28;20256;-81
2022/01/25 04:01:37;;;;;;;29.80;17.42;;;;;11.20;103228.00;;;;5092572;28;20194;-81
2022/01/25 04:04:09;;;;;;;27.52;16.23;;;;;11.20;103227.00;;;;5090519;28;20194;-81
2022/01/25 04:06:38;;;;;;;27.27;16.33;;;;;11.20;103231.00;;;;5089857;28;20186;-81
2022/01/25 04:09:07;;;;;;;27.02;16.73;;;;;11.20;103231.00;;;;5089583;28;20778;-81
2022/01/25 04:11:34;;;;;;;27.23;16.67;;;;;11.20;103232.00;;;;5090198;28;20214;-81
2022/01/25 04:14:04;;;;;;;25.30;15.63;;;;;11.20;103235.00;;;;5090200;28;20213;-81
2022/01/25 04:16:35;;;;;;;29.52;17.25;;;;;11.20;103227.00;;;;5088381;28;20755;-81
2022/01/25 04:19:08;;;;;;;26.90;15.90;;;;;11.20;103232.00;;;;5081107;28;20199;-81
2022/01/25 04:24:55;;;;;;;26.25;15.73;;;;;11.20;103236.00;;;;5102999;28;20213;-81
2022/01/25 04:27:23;;;;;;;25.02;16.02;;;;;11.20;103235.00;;;;5088208;28;20260;-80
2022/01/25 04:29:52;;;;;;;27.67;16.92;;;;;11.20;103235.00;;;;5089541;28;20205;-81
2022/01/25 04:32:30;;;;;;;26.35;16.33;;;;;11.20;103230.00;;;;5089370;28;20226;-81
2022/01/25 04:35:11;;;;;;;26.17;16.35;;;;;11.20;103229.00;;;;5088173;28;20190;-81
2022/01/25 04:49:06;;;;;;;25.35;16.27;;;;;11.20;103216.00;;;;5088796;28;20580;-80
2022/01/25 04:54:39;;;;;;;24.75;15.43;;;;;11.20;103215.00;;;;5047942;28;20287;-81
2022/01/25 04:57:19;;;;;;;27.23;16.63;;;;;11.20;103218.00;;;;5088032;28;20220;-81
2022/01/25 04:59:53;;;;;;;26.50;16.00;;;;;11.30;103211.00;;;;5085062;28;20612;-81
2022/01/25 05:02:33;;;;;;;27.20;16.42;;;;;11.20;103209.00;;;;5079920;28;20199;-81
2022/01/25 05:05:05;;;;;;;27.95;17.38;;;;;11.30;103208.00;;;;5068527;28;20214;-81
2022/01/25 05:07:38;;;;;;;24.70;15.00;;;;;11.30;103209.00;;;;5087600;28;20205;-80
2022/01/25 05:10:08;;;;;;;26.88;16.20;;;;;11.30;103202.00;;;;5085463;28;20200;-81
2022/01/25 05:12:41;;;;;;;29.20;17.35;;;;;11.30;103209.00;;;;5087702;28;20218;-81
2022/01/25 05:15:21;;;;;;;26.55;17.20;;;;;11.30;103209.00;;;;5093897;28;20197;-81
2022/01/25 05:18:06;;;;;;;28.48;16.10;;;;;11.30;103209.00;;;;5088924;28;20253;-81
2022/01/25 05:23:18;;;;;;;26.48;15.75;;;;;11.30;103200.00;;;;5085360;28;20252;-81
2022/01/25 05:25:45;;;;;;;28.58;16.65;;;;;11.30;103203.00;;;;5088440;28;20222;-81
2022/01/25 05:28:12;;;;;;;30.50;18.58;;;;;11.30;103210.00;;;;5087782;28;20214;-81
2022/01/25 05:30:40;;;;;;;31.88;18.55;;;;;11.30;103205.00;;;;5088769;28;20190;-81
2022/01/25 05:33:08;;;;;;;32.50;19.63;;;;;11.30;103206.00;;;;5087578;28;20300;-81
2022/01/25 05:35:36;;;;;;;31.98;19.48;;;;;11.30;103205.00;;;;5089996;28;20194;-81
2022/01/25 05:38:04;;;;;;;30.13;17.92;;;;;11.30;103208.00;;;;5090626;28;20201;-81
2022/01/25 05:40:43;;;;;;;28.33;17.80;;;;;11.30;103214.00;;;;5088555;28;20202;-80
2022/01/25 05:46:11;;;;;;;31.70;18.30;;;;;11.30;103205.00;;;;5069234;28;20200;-81
2022/01/25 05:48:40;;;;;;;32.45;18.17;;;;;11.30;103204.00;;;;5093001;28;20729;-81
2022/01/25 05:51:08;;;;;;;28.73;17.55;;;;;11.30;103216.00;;;;5093349;28;20199;-81
2022/01/25 05:53:36;;;;;;;31.83;19.38;;;;;11.30;103221.00;;;;5098716;28;20194;-81
2022/01/25 05:56:03;;;;;;;30.92;19.23;;;;;11.30;103219.00;;;;5092514;28;20238;-80
2022/01/25 05:58:30;;;;;;;31.65;19.50;;;;;11.30;103213.00;;;;5090861;28;20214;-80
2022/01/25 06:00:59;;;;;;;30.30;18.15;;;;;11.30;103217.00;;;;5090195;28;20945;-81
2022/01/25 06:03:26;;;;;;;30.58;18.30;;;;;11.30;103219.00;;;;5098909;28;20202;-81
2022/01/25 06:05:55;;;;;;;32.25;18.08;;;;;11.30;103215.00;;;;5090912;28;20676;-80
2022/01/25 06:08:22;;;;;;;35.38;20.45;;;;;11.30;103213.00;;;;5092543;28;20202;-80
2022/01/25 06:10:49;;;;;;;31.17;18.50;;;;;11.30;103222.00;;;;5092292;28;20666;-80
2022/01/25 06:13:16;;;;;;;29.80;17.23;;;;;11.30;103215.00;;;;5101846;28;20240;-80
2022/01/25 06:15:44;;;;;;;31.73;19.25;;;;;11.30;103217.00;;;;5110861;28;20205;-80
2022/01/25 06:18:11;;;;;;;30.60;17.63;;;;;11.30;103215.00;;;;5093443;28;20215;-80
2022/01/25 06:20:38;;;;;;;29.67;18.02;;;;;11.30;103217.00;;;;5082353;28;20691;-80
2022/01/25 06:23:07;;;;;;;30.23;18.88;;;;;11.30;103208.00;;;;5101759;28;20198;-80
2022/01/25 06:25:35;;;;;;;31.42;18.80;;;;;11.40;103212.00;;;;5091534;28;20240;-80
2022/01/25 06:28:02;;;;;;;34.45;18.83;;;;;11.40;103216.00;;;;5097725;28;20270;-80
2022/01/25 06:30:30;;;;;;;31.88;18.80;;;;;11.40;103206.00;;;;5096002;28;20198;-80
2022/01/25 06:32:57;;;;;;;29.27;18.77;;;;;11.40;103215.00;;;;5111434;28;20225;-80
2022/01/25 06:35:27;;;;;;;33.15;20.02;;;;;11.40;103214.00;;;;5099526;28;20201;-80
2022/01/25 06:37:55;;;;;;;29.63;17.40;;;;;11.40;103209.00;;;;5092996;28;20202;-80
2022/01/25 06:40:24;;;;;;;30.15;17.75;;;;;11.40;103207.00;;;;5092769;28;20198;-81
2022/01/25 06:42:52;;;;;;;32.25;19.60;;;;;11.40;103211.00;;;;5090452;28;20213;-81
2022/01/25 06:45:21;;;;;;;29.70;18.77;;;;;11.40;103213.00;;;;5091091;28;20731;-81
2022/01/25 06:47:50;;;;;;;29.83;18.08;;;;;11.40;103207.00;;;;5091631;28;20194;-81
2022/01/25 06:50:20;;;;;;;28.10;16.33;;;;;11.40;103210.00;;;;5090834;28;20197;-80
2022/01/25 06:52:48;;;;;;;31.00;17.80;;;;;11.30;103223.00;;;;5091878;28;20221;-80
2022/01/25 06:55:17;;;;;;;30.75;17.80;;;;;11.30;103218.00;;;;5091176;28;20229;-80
2022/01/25 06:57:47;;;;;;;31.70;18.00;;;;;11.30;103224.00;;;;5093376;28;20627;-79
2022/01/25 07:00:17;;;;;;;28.10;16.88;;;;;11.30;103220.00;;;;5091059;28;20202;-80
2022/01/25 07:02:44;;;;;;;26.90;16.38;;;;;11.30;103228.00;;;;5092348;28;20187;-79
2022/01/25 07:05:12;;;;;;;32.20;18.98;;;;;11.40;103231.00;;;;5090703;28;20202;-79
2022/01/25 07:07:41;;;;;;;33.22;18.83;;;;;11.30;103224.00;;;;5093102;28;20198;-81
2022/01/25 07:10:09;;;;;;;30.88;19.15;;;;;11.30;103231.00;;;;5092654;28;20198;-82
2022/01/25 07:12:36;;;;;;;30.73;18.02;;;;;11.30;103230.00;;;;5088759;28;20688;-83
2022/01/25 07:15:06;;;;;;;30.83;18.40;;;;;11.30;103238.00;;;;5078343;28;20194;-83
2022/01/25 07:17:33;;;;;;;30.48;18.30;;;;;11.30;103243.00;;;;5090865;28;20202;-82
2022/01/25 07:20:01;;;;;;;31.08;18.30;;;;;11.30;103235.00;;;;5090665;28;20218;-82
2022/01/25 07:22:28;;;;;;;33.70;19.60;;;;;11.30;103242.00;;;;5090826;28;20194;-82
2022/01/25 07:24:55;;;;;;;32.75;19.20;;;;;11.30;103241.00;;;;5090214;28;20199;-82
2022/01/25 07:27:23;;;;;;;33.08;18.48;;;;;11.30;103235.00;;;;5070780;28;20230;-82
2022/01/25 07:29:50;;;;;;;27.90;17.48;;;;;11.30;103235.00;;;;5069731;28;20214;-82
2022/01/25 07:32:18;;;;;;;31.17;18.77;;;;;11.20;103234.00;;;;5085935;28;20221;-82
2022/01/25 07:34:46;;;;;;;35.22;19.40;;;;;11.30;103236.00;;;;5090154;28;20194;-82
2022/01/25 07:37:13;;;;;;;32.78;19.25;;;;;11.30;103238.00;;;;5090039;28;20206;-82
2022/01/25 07:39:42;;;;;;;32.92;17.98;;;;;11.30;103237.00;;;;5090574;28;20589;-82
2022/01/25 07:42:10;;;;;;;33.20;19.08;;;;;11.30;103244.00;;;;5097273;28;20258;-81
2022/01/25 07:44:39;;;;;;;31.83;19.05;;;;;11.30;103244.00;;;;5081848;28;20571;-80
2022/01/25 07:47:07;;;;;;;34.58;20.27;;;;;11.30;103252.00;;;;5090282;28;20202;-80
2022/01/25 07:49:36;;;;;;;37.67;20.67;;;;;11.20;103254.00;;;;5090190;28;20194;-80
2022/01/25 07:52:04;;;;;;;32.40;19.35;;;;;11.30;103250.00;;;;5088040;28;20738;-80
2022/01/25 07:54:31;;;;;;;31.83;19.23;;;;;11.30;103249.00;;;;5088734;28;20598;-80
2022/01/25 07:56:58;;;;;;;32.38;20.38;;;;;11.30;103250.00;;;;5088895;28;20442;-80
2022/01/25 07:59:26;;;;;;;33.55;19.45;;;;;11.30;103252.00;;;;5087763;28;20216;-80
2022/01/25 08:01:53;;;;;;;33.75;20.05;;;;;11.30;103255.00;;;;5087700;28;20606;-80
2022/01/25 08:04:21;;;;;;;35.95;20.33;;;;;11.30;103249.00;;;;5088009;28;20221;-79
2022/01/25 08:06:49;;;;;;;36.35;20.48;;;;;11.20;103248.00;;;;5090484;28;20739;-80
2022/01/25 08:09:17;;;;;;;39.28;21.33;;;;;11.30;103242.00;;;;5082848;28;20199;-80
2022/01/25 08:11:44;;;;;;;36.17;20.23;;;;;11.30;103249.00;;;;5084855;28;20209;-80
2022/01/25 08:14:12;;;;;;;35.90;21.17;;;;;11.20;103250.00;;;;5090764;28;20212;-80
2022/01/25 08:16:40;;;;;;;36.75;21.77;;;;;11.20;103241.00;;;;5089532;28;20218;-80
2022/01/25 08:19:07;;;;;;;38.22;20.95;;;;;11.20;103242.00;;;;5079126;28;20886;-80
2022/01/25 08:21:36;;;;;;;35.97;20.27;;;;;11.20;103235.00;;;;5097639;28;20687;-80
2022/01/25 08:24:05;;;;;;;38.55;21.48;;;;;11.20;103239.00;;;;5093922;28;20273;-78
2022/01/25 08:26:33;;;;;;;38.55;21.90;;;;;11.20;103229.00;;;;5097743;28;20201;-79
2022/01/25 08:29:01;;;;;;;36.70;21.13;;;;;11.20;103234.00;;;;5088561;28;20198;-78
2022/01/25 08:31:28;;;;;;;34.75;20.17;;;;;11.20;103229.00;;;;5089360;28;20200;-77
2022/01/25 08:33:56;;;;;;;39.53;21.60;;;;;11.20;103232.00;;;;5083416;28;20309;-78
2022/01/25 08:36:23;;;;;;;36.70;20.20;;;;;11.20;103229.00;;;;5086688;28;20194;-79
2022/01/25 08:38:50;;;;;;;36.95;20.92;;;;;11.20;103232.00;;;;5089118;28;20203;-79
2022/01/25 08:41:19;;;;;;;35.67;20.52;;;;;11.20;103237.00;;;;5097342;28;20194;-78
2022/01/25 08:43:46;;;;;;;42.03;22.92;;;;;11.20;103234.00;;;;5090689;28;20202;-79
2022/01/25 08:46:15;;;;;;;37.22;21.52;;;;;11.20;103238.00;;;;5092992;28;20656;-79
2022/01/25 08:48:42;;;;;;;37.58;19.52;;;;;11.20;103240.00;;;;5107248;28;20197;-79
2022/01/25 08:51:10;;;;;;;40.85;21.33;;;;;11.20;103238.00;;;;5080609;28;20199;-78
2022/01/25 08:53:37;;;;;;;37.47;20.23;;;;;11.20;103240.00;;;;5068419;28;20237;-79
2022/01/25 08:56:05;;;;;;;39.83;22.25;;;;;11.20;103237.00;;;;5101694;28;20217;-79
2022/01/25 08:58:34;;;;;;;37.70;20.92;;;;;11.20;103240.00;;;;5088193;28;20233;-78
2022/01/25 09:01:01;;;;;;;36.35;19.98;;;;;11.20;103250.00;;;;5087851;28;20195;-79
2022/01/25 09:03:28;;;;;;;38.42;20.73;;;;;11.20;103252.00;;;;5088077;28;20197;-78
2022/01/25 09:05:55;;;;;;;39.25;21.27;;;;;11.20;103247.00;;;;5085630;28;20187;-79
2022/01/25 09:08:26;;;;;;;38.60;22.95;;;;;11.20;103248.00;;;;5078067;28;20203;-79
2022/01/25 09:10:58;;;;;;;40.75;22.50;;;;;11.20;103248.00;;;;5084489;28;20194;-77
2022/01/25 09:13:26;;;;;;;41.42;21.38;;;;;11.20;103250.00;;;;5090654;28;20230;-77
2022/01/25 09:15:54;;;;;;;38.97;21.98;;;;;11.20;103245.00;;;;5107598;28;20675;-77
2022/01/25 09:18:22;;;;;;;39.85;21.25;;;;;11.30;103250.00;;;;5091758;28;20589;-80
2022/01/25 09:20:49;;;;;;;36.50;20.83;;;;;11.30;103250.00;;;;5088205;28;20642;-79
2022/01/25 09:23:18;;;;;;;37.75;19.92;;;;;11.30;103252.00;;;;5093193;28;20187;-79
2022/01/25 09:25:47;;;;;;;35.28;20.13;;;;;11.30;103259.00;;;;5074177;28;20661;-79
2022/01/25 09:28:15;;;;;;;37.33;20.30;;;;;11.30;103267.00;;;;5081391;28;20205;-79
2022/01/25 09:30:43;;;;;;;34.72;20.13;;;;;11.30;103264.00;;;;5098626;28;20194;-79
2022/01/25 09:33:12;;;;;;;38.85;21.35;;;;;11.20;103270.00;;;;5095401;28;20220;-80
2022/01/25 09:35:40;;;;;;;35.00;18.95;;;;;11.20;103264.00;;;;5082177;28;20656;-81
2022/01/25 09:38:07;;;;;;;36.70;19.70;;;;;11.20;103272.00;;;;5093310;28;20209;-81
2022/01/25 09:40:35;;;;;;;35.95;19.23;;;;;11.20;103272.00;;;;5091430;28;20576;-81
2022/01/25 09:43:03;;;;;;;35.08;18.85;;;;;11.20;103267.00;;;;5075426;28;20210;-81
2022/01/25 09:45:30;;;;;;;39.05;20.58;;;;;11.30;103274.00;;;;5081796;28;20194;-82
2022/01/25 09:47:57;;;;;;;38.72;20.60;;;;;11.30;103275.00;;;;5070541;28;20677;-82
2022/01/25 09:50:27;;;;;;;39.70;20.48;;;;;11.30;103279.00;;;;5081835;28;20201;-82
2022/01/25 09:52:54;;;;;;;38.40;20.95;;;;;11.30;103278.00;;;;5093567;28;20316;-82
2022/01/25 09:55:23;;;;;;;36.05;19.70;;;;;11.30;103276.00;;;;5096861;28;20222;-82
2022/01/25 09:57:50;;;;;;;38.28;21.20;;;;;11.40;103285.00;;;;5095881;28;20194;-82
2022/01/25 10:00:21;;;;;;;39.22;20.83;;;;;11.40;103280.00;;;;5094336;28;20213;-83
2022/01/25 10:02:58;;;;;;;34.63;18.83;;;;;11.40;103285.00;;;;5094133;28;20202;-83
2022/01/25 10:05:31;;;;;;;35.30;19.15;;;;;11.40;103287.00;;;;5099037;28;20265;-82
2022/01/25 10:08:01;;;;;;;42.03;20.05;;;;;11.40;103289.00;;;;5093561;28;20524;-83
2022/01/25 10:10:30;;;;;;;37.45;19.95;;;;;11.40;103286.00;;;;5097230;28;20201;-82
2022/01/25 10:13:07;;;;;;;35.72;18.52;;;;;11.40;103287.00;;;;5095895;28;20750;-83
2022/01/25 10:15:35;;;;;;;41.70;18.85;;;;;11.40;103293.00;;;;5089506;28;20194;-82
2022/01/25 10:18:04;;;;;;;36.78;18.75;;;;;11.40;103296.00;;;;5078634;28;20202;-83
2022/01/25 10:20:35;;;;;;;35.88;19.67;;;;;11.40;103299.00;;;;5090741;28;20207;-81
2022/01/25 10:23:08;;;;;;;36.08;19.83;;;;;11.40;103297.00;;;;5095849;28;20214;-82
2022/01/25 10:25:39;;;;;;;36.42;19.42;;;;;11.40;103300.00;;;;5091428;28;20201;-82
2022/01/25 10:28:13;;;;;;;36.95;19.55;;;;;11.40;103301.00;;;;5088253;28;20190;-83
2022/01/25 10:30:47;;;;;;;35.78;19.33;;;;;11.40;103299.00;;;;5088130;28;20746;-82
2022/01/25 10:33:20;;;;;;;38.90;19.55;;;;;11.40;103301.00;;;;5090166;28;20226;-82
2022/01/25 10:35:50;;;;;;;39.92;21.13;;;;;11.50;103305.00;;;;5097323;28;20205;-82
2022/01/25 10:38:27;;;;;;;37.47;19.73;;;;;11.40;103302.00;;;;5093168;28;20201;-82
2022/01/25 10:40:57;;;;;;;36.97;19.90;;;;;11.50;103316.00;;;;5091729;28;20190;-82
2022/01/25 10:43:25;;;;;;;34.95;18.58;;;;;11.50;103324.00;;;;5091052;28;20207;-83
2022/01/25 10:46:17;;;;;;;34.40;18.40;;;;;11.40;103310.00;;;;5091349;28;20199;-82
2022/01/25 10:48:49;;;;;;;33.28;17.90;;;;;11.40;103321.00;;;;5082822;28;20244;-81
2022/01/25 10:51:20;;;;;;;36.78;19.58;;;;;11.40;103310.00;;;;5076991;28;20199;-81
2022/01/25 10:54:09;;;;;;;38.38;18.92;;;;;11.40;103309.00;;;;5101696;28;20221;-82
2022/01/25 10:56:42;;;;;;;35.08;19.05;;;;;11.40;103308.00;;;;5103234;28;20205;-82
2022/01/25 10:59:12;;;;;;;36.03;18.85;;;;;11.40;103313.00;;;;5070435;28;20206;-81
2022/01/25 11:01:45;;;;;;;34.90;18.45;;;;;11.40;103308.00;;;;5099802;28;20230;-82
2022/01/25 11:04:14;;;;;;;37.15;19.10;;;;;11.40;103315.00;;;;5100132;28;20220;-82
2022/01/25 11:06:44;;;;;;;37.38;19.27;;;;;11.40;103303.00;;;;5095958;28;20203;-82
2022/01/25 11:09:13;;;;;;;34.05;18.65;;;;;11.40;103302.00;;;;5080350;28;20600;-83
2022/01/25 11:11:45;;;;;;;36.47;19.80;;;;;11.40;103303.00;;;;5086852;28;20200;-82
2022/01/25 11:16:59;;;;;;;36.92;18.30;;;;;11.40;103298.00;;;;5090357;28;20644;-83
2022/01/25 11:19:26;;;;;;;35.17;18.80;;;;;11.40;103290.00;;;;5091038;28;20210;-83
2022/01/25 11:21:58;;;;;;;35.42;18.50;;;;;11.40;103294.00;;;;5089948;28;20214;-83
2022/01/25 11:24:30;;;;;;;34.15;17.92;;;;;11.40;103286.00;;;;5082760;28;20202;-84
2022/01/25 11:27:02;;;;;;;37.40;20.23;;;;;11.40;103297.00;;;;5092748;28;20552;-83
2022/01/25 11:29:30;;;;;;;38.83;20.35;;;;;11.40;103292.00;;;;5103374;28;20581;-83
2022/01/25 11:32:05;;;;;;;39.20;19.38;;;;;11.40;103290.00;;;;5097366;28;20219;-82
2022/01/25 11:34:34;;;;;;;37.58;20.02;;;;;11.50;103287.00;;;;5096609;28;20229;-82
2022/01/25 11:37:07;;;;;;;33.60;18.20;;;;;11.40;103292.00;;;;5100320;28;20202;-82
2022/01/25 11:39:35;;;;;;;35.85;19.23;;;;;11.50;103287.00;;;;5090740;28;20630;-82
2022/01/25 11:42:05;;;;;;;37.05;18.70;;;;;11.50;103280.00;;;;5077218;28;20186;-83
2022/01/25 11:44:33;;;;;;;34.92;19.15;;;;;11.50;103287.00;;;;5089483;28;20574;-81
2022/01/25 11:47:10;;;;;;;35.92;19.70;;;;;11.50;103291.00;;;;5084015;28;20203;-82
2022/01/25 11:49:53;;;;;;;38.65;19.90;;;;;11.50;103295.00;;;;5075870;28;20233;-81
2022/01/25 11:52:24;;;;;;;35.95;19.02;;;;;11.50;103290.00;;;;5090224;28;20213;-81
2022/01/25 11:54:54;;;;;;;37.72;19.05;;;;;11.50;103285.00;;;;5090301;28;20258;-81
2022/01/25 11:57:23;;;;;;;37.65;19.25;;;;;11.50;103284.00;;;;5086932;28;20522;-82
2022/01/25 11:59:53;;;;;;;31.48;16.77;;;;;11.50;103281.00;;;;5083236;28;20210;-82
2022/01/25 12:02:41;;;;;;;33.17;18.42;;;;;11.40;103272.00;;;;5097486;28;20266;-81
2022/01/25 12:05:10;;;;;;;36.13;18.65;;;;;11.50;103272.00;;;;5085447;28;20199;-81
2022/01/25 12:07:42;;;;;;;36.13;19.17;;;;;11.50;103273.00;;;;5096367;28;20205;-81
2022/01/25 12:10:32;;;;;;;37.22;19.55;;;;;11.40;103273.00;;;;5095017;28;20202;-81
2022/01/25 12:13:18;;;;;;;34.65;18.38;;;;;11.40;103253.00;;;;5093452;28;20210;-81
2022/01/25 12:15:46;;;;;;;30.63;16.25;;;;;11.40;103263.00;;;;5099992;28;20258;-82
2022/01/25 12:18:47;;;;;;;30.02;15.60;;;;;11.30;103258.00;;;;5116237;28;20209;-83
2022/01/25 12:21:14;;;;;;;32.63;15.85;;;;;11.40;103255.00;;;;5086222;28;20225;-83
2022/01/25 12:23:46;;;;;;;35.78;17.92;;;;;11.50;103260.00;;;;5108205;28;20190;-82
2022/01/25 12:26:34;;;;;;;37.42;18.80;;;;;11.50;103256.00;;;;5106140;28;20202;-82
2022/01/25 12:29:34;;;;;;;35.03;17.60;;;;;11.40;103250.00;;;;5095413;28;20190;-82
2022/01/25 12:32:24;;;;;;;32.13;16.67;;;;;11.40;103249.00;;;;5085154;28;20199;-82
2022/01/25 12:35:05;;;;;;;36.13;18.55;;;;;11.40;103250.00;;;;5085741;28;20226;-82
2022/01/25 12:37:59;;;;;;;38.35;19.90;;;;;11.40;103256.00;;;;5090332;28;20186;-81
2022/01/25 12:40:56;;;;;;;29.10;15.43;;;;;11.30;103253.00;;;;5090738;28;20999;-82
2022/01/25 12:43:26;;;;;;;32.28;17.65;;;;;11.40;103251.00;;;;5100846;28;20202;-81
2022/01/25 12:45:57;;;;;;;34.65;18.80;;;;;11.50;103247.00;;;;5090475;28;20213;-82
2022/01/25 12:48:28;;;;;;;34.67;17.73;;;;;11.50;103241.00;;;;5091591;28;20225;-84
2022/01/25 12:53:44;;;;;;;33.50;18.15;;;;;11.50;103240.00;;;;5092615;28;20221;-82
2022/01/25 12:56:16;;;;;;;35.13;17.88;;;;;11.40;103228.00;;;;5105627;28;20269;-81
2022/01/25 12:58:44;;;;;;;32.08;16.67;;;;;11.40;103230.00;;;;5096169;28;20467;-81
2022/01/25 13:01:14;;;;;;;31.83;16.75;;;;;11.40;103222.00;;;;5105796;28;20189;-81
2022/01/25 13:03:43;;;;;;;31.90;17.05;;;;;11.40;103223.00;;;;5101583;28;20192;-81
2022/01/25 13:06:12;;;;;;;34.47;17.38;;;;;11.40;103217.00;;;;5080228;28;20206;-82
2022/01/25 13:08:46;;;;;;;34.70;17.05;;;;;11.40;103218.00;;;;5085953;28;20195;-83
2022/01/25 13:11:23;;;;;;;32.90;16.95;;;;;11.40;103216.00;;;;5074294;28;20230;-83
2022/01/25 13:14:17;;;;;;;31.95;16.63;;;;;11.40;103221.00;;;;5095896;28;20219;-83
2022/01/25 13:16:48;;;;;;;33.85;16.13;;;;;11.40;103215.00;;;;5077497;28;20202;-83
2022/01/25 13:19:18;;;;;;;32.15;16.38;;;;;11.40;103210.00;;;;5103571;28;20198;-83
2022/01/25 13:21:50;;;;;;;31.35;17.23;;;;;11.40;103207.00;;;;5106268;28;20225;-83
2022/01/25 13:24:19;;;;;;;34.45;17.50;;;;;11.40;103211.00;;;;5105230;28;20238;-84
2022/01/25 13:27:11;;;;;;;34.65;16.60;;;;;11.30;103215.00;;;;5108290;28;20292;-84